Airport Name : Memmingen Allgau

Other Name : Memmingen

ICAO : EDJA

IATA :

FAA :

Latitude : 47.988758

Longitude : 10.2395

Country : Germany

Local Date and Time : 19 Jan 2021 16:06

 

TAF (Terminal Aerodrome Forecast)

TAF EDJA 191400Z 1915/1924 23020G30KT 9999 BKN050 BECMG 1920/1922 22012KT

 

METAR (METeorological Aerodrome Report)

EDJA 191450Z 23022KT 9999 -RA FEW045 OVC053 01/M03 Q1015

EDJA 191420Z 23021KT 9999 -RA OVC044 01/M04 Q1015

EDJA 191350Z 23020KT 9999 BKN052 01/M04 Q1015

EDJA 191320Z 23021KT CAVOK 01/M04 Q1015

EDJA 191250Z 23019G29KT CAVOK 01/M05 Q1015

EDJA 191220Z 22016KT CAVOK 00/M04 Q1015

EDJA 191150Z 22014KT CAVOK M01/M04 Q1016

EDJA 191120Z 22014KT CAVOK M01/M05 Q1016

To Charter a Jet Click here.